sensor_id;sensor_type;location;lat;lon;timestamp;P1;durP1;ratioP1;P2;durP2;ratioP2
15681;SDS011;7941;50.966;6.978;2023-04-03T00:00:22;5.23;;;4.47;;
15681;SDS011;7941;50.966;6.978;2023-04-03T00:02:48;4.63;;;4.23;;
15681;SDS011;7941;50.966;6.978;2023-04-03T00:05:14;6.40;;;4.20;;
15681;SDS011;7941;50.966;6.978;2023-04-03T00:07:41;5.23;;;4.73;;
15681;SDS011;7941;50.966;6.978;2023-04-03T00:10:07;5.90;;;4.63;;
15681;SDS011;7941;50.966;6.978;2023-04-03T00:12:33;5.97;;;5.37;;
15681;SDS011;7941;50.966;6.978;2023-04-03T00:15:00;5.83;;;5.33;;
15681;SDS011;7941;50.966;6.978;2023-04-03T00:17:26;5.97;;;5.43;;
15681;SDS011;7941;50.966;6.978;2023-04-03T00:19:52;6.70;;;5.70;;
15681;SDS011;7941;50.966;6.978;2023-04-03T00:22:18;7.20;;;5.73;;
15681;SDS011;7941;50.966;6.978;2023-04-03T00:24:44;6.23;;;5.57;;
15681;SDS011;7941;50.966;6.978;2023-04-03T00:27:10;6.73;;;5.90;;
15681;SDS011;7941;50.966;6.978;2023-04-03T00:29:36;6.47;;;5.93;;
15681;SDS011;7941;50.966;6.978;2023-04-03T00:32:02;5.93;;;5.47;;
15681;SDS011;7941;50.966;6.978;2023-04-03T00:34:29;6.40;;;5.70;;
15681;SDS011;7941;50.966;6.978;2023-04-03T00:36:55;5.90;;;5.43;;
15681;SDS011;7941;50.966;6.978;2023-04-03T00:39:22;5.87;;;5.30;;
15681;SDS011;7941;50.966;6.978;2023-04-03T00:41:48;6.43;;;5.93;;
15681;SDS011;7941;50.966;6.978;2023-04-03T00:44:22;6.60;;;6.10;;
15681;SDS011;7941;50.966;6.978;2023-04-03T00:46:48;7.90;;;5.87;;
15681;SDS011;7941;50.966;6.978;2023-04-03T00:49:15;6.87;;;6.17;;
15681;SDS011;7941;50.966;6.978;2023-04-03T00:51:41;6.40;;;5.80;;
15681;SDS011;7941;50.966;6.978;2023-04-03T00:54:07;7.00;;;6.30;;
15681;SDS011;7941;50.966;6.978;2023-04-03T00:56:34;6.10;;;5.47;;
15681;SDS011;7941;50.966;6.978;2023-04-03T01:01:27;7.20;;;6.50;;
15681;SDS011;7941;50.966;6.978;2023-04-03T01:03:54;6.53;;;5.50;;
15681;SDS011;7941;50.966;6.978;2023-04-03T01:06:23;6.20;;;5.60;;
15681;SDS011;7941;50.966;6.978;2023-04-03T01:08:51;5.87;;;5.33;;
15681;SDS011;7941;50.966;6.978;2023-04-03T01:11:17;6.33;;;5.80;;
15681;SDS011;7941;50.966;6.978;2023-04-03T01:13:44;5.97;;;5.43;;
15681;SDS011;7941;50.966;6.978;2023-04-03T01:16:10;6.53;;;5.90;;
15681;SDS011;7941;50.966;6.978;2023-04-03T01:18:37;6.47;;;5.87;;
15681;SDS011;7941;50.966;6.978;2023-04-03T01:23:40;6.03;;;5.63;;
15681;SDS011;7941;50.966;6.978;2023-04-03T01:26:08;7.63;;;5.70;;
15681;SDS011;7941;50.966;6.978;2023-04-03T01:28:36;6.70;;;6.10;;
15681;SDS011;7941;50.966;6.978;2023-04-03T01:31:19;7.43;;;6.50;;
15681;SDS011;7941;50.966;6.978;2023-04-03T01:33:46;6.77;;;6.17;;
15681;SDS011;7941;50.966;6.978;2023-04-03T01:36:20;6.87;;;6.17;;
15681;SDS011;7941;50.966;6.978;2023-04-03T01:38:47;6.50;;;5.90;;
15681;SDS011;7941;50.966;6.978;2023-04-03T01:41:14;6.20;;;5.60;;
15681;SDS011;7941;50.966;6.978;2023-04-03T01:43:41;6.30;;;5.90;;
15681;SDS011;7941;50.966;6.978;2023-04-03T01:46:07;6.23;;;5.30;;
15681;SDS011;7941;50.966;6.978;2023-04-03T01:48:33;6.60;;;5.97;;
15681;SDS011;7941;50.966;6.978;2023-04-03T01:50:59;6.97;;;6.27;;
15681;SDS011;7941;50.966;6.978;2023-04-03T01:53:26;6.17;;;5.67;;
15681;SDS011;7941;50.966;6.978;2023-04-03T01:55:52;7.13;;;6.10;;
15681;SDS011;7941;50.966;6.978;2023-04-03T01:58:18;6.90;;;6.30;;
15681;SDS011;7941;50.966;6.978;2023-04-03T02:00:44;7.10;;;6.50;;
15681;SDS011;7941;50.966;6.978;2023-04-03T02:03:11;7.27;;;6.60;;
15681;SDS011;7941;50.966;6.978;2023-04-03T02:05:37;8.10;;;7.20;;
15681;SDS011;7941;50.966;6.978;2023-04-03T02:08:03;8.13;;;7.33;;
15681;SDS011;7941;50.966;6.978;2023-04-03T02:10:29;7.07;;;6.47;;
15681;SDS011;7941;50.966;6.978;2023-04-03T02:12:56;8.03;;;7.17;;
15681;SDS011;7941;50.966;6.978;2023-04-03T02:15:22;7.40;;;6.80;;
15681;SDS011;7941;50.966;6.978;2023-04-03T02:17:48;7.90;;;7.10;;
15681;SDS011;7941;50.966;6.978;2023-04-03T02:20:14;10.40;;;7.47;;
15681;SDS011;7941;50.966;6.978;2023-04-03T02:22:40;7.70;;;7.07;;
15681;SDS011;7941;50.966;6.978;2023-04-03T02:25:07;7.57;;;6.87;;
15681;SDS011;7941;50.966;6.978;2023-04-03T02:27:33;7.53;;;6.93;;
15681;SDS011;7941;50.966;6.978;2023-04-03T02:30:00;7.87;;;7.17;;
15681;SDS011;7941;50.966;6.978;2023-04-03T02:32:26;8.00;;;7.20;;
15681;SDS011;7941;50.966;6.978;2023-04-03T02:34:52;7.10;;;6.50;;
15681;SDS011;7941;50.966;6.978;2023-04-03T02:37:18;7.80;;;7.03;;
15681;SDS011;7941;50.966;6.978;2023-04-03T02:39:44;8.10;;;7.30;;
15681;SDS011;7941;50.966;6.978;2023-04-03T02:42:10;9.03;;;7.77;;
15681;SDS011;7941;50.966;6.978;2023-04-03T02:44:37;7.20;;;6.50;;
15681;SDS011;7941;50.966;6.978;2023-04-03T02:47:04;7.20;;;6.57;;
15681;SDS011;7941;50.966;6.978;2023-04-03T02:49:30;7.50;;;6.60;;
15681;SDS011;7941;50.966;6.978;2023-04-03T02:51:57;6.97;;;6.47;;
15681;SDS011;7941;50.966;6.978;2023-04-03T02:54:23;7.47;;;6.77;;
15681;SDS011;7941;50.966;6.978;2023-04-03T02:56:52;7.03;;;6.43;;
15681;SDS011;7941;50.966;6.978;2023-04-03T02:59:19;7.57;;;6.87;;
15681;SDS011;7941;50.966;6.978;2023-04-03T03:01:45;7.37;;;6.67;;
15681;SDS011;7941;50.966;6.978;2023-04-03T03:04:12;6.57;;;6.00;;
15681;SDS011;7941;50.966;6.978;2023-04-03T03:06:38;8.00;;;6.57;;
15681;SDS011;7941;50.966;6.978;2023-04-03T03:09:05;6.70;;;6.10;;
15681;SDS011;7941;50.966;6.978;2023-04-03T03:11:31;7.20;;;6.60;;
15681;SDS011;7941;50.966;6.978;2023-04-03T03:13:57;7.07;;;6.37;;
15681;SDS011;7941;50.966;6.978;2023-04-03T03:16:23;8.43;;;7.50;;
15681;SDS011;7941;50.966;6.978;2023-04-03T03:18:49;6.87;;;6.20;;
15681;SDS011;7941;50.966;6.978;2023-04-03T03:21:15;6.70;;;6.10;;
15681;SDS011;7941;50.966;6.978;2023-04-03T03:23:42;6.57;;;6.03;;
15681;SDS011;7941;50.966;6.978;2023-04-03T03:26:09;6.97;;;6.27;;
15681;SDS011;7941;50.966;6.978;2023-04-03T03:28:35;9.33;;;6.47;;
15681;SDS011;7941;50.966;6.978;2023-04-03T03:31:02;6.53;;;5.83;;
15681;SDS011;7941;50.966;6.978;2023-04-03T03:33:28;6.40;;;5.90;;
15681;SDS011;7941;50.966;6.978;2023-04-03T03:35:55;7.17;;;6.40;;
15681;SDS011;7941;50.966;6.978;2023-04-03T03:38:21;7.40;;;6.00;;
15681;SDS011;7941;50.966;6.978;2023-04-03T03:40:48;6.73;;;6.07;;
15681;SDS011;7941;50.966;6.978;2023-04-03T03:43:15;6.47;;;5.83;;
15681;SDS011;7941;50.966;6.978;2023-04-03T03:45:41;7.40;;;6.37;;
15681;SDS011;7941;50.966;6.978;2023-04-03T03:48:07;6.23;;;5.60;;
15681;SDS011;7941;50.966;6.978;2023-04-03T03:50:34;6.73;;;6.20;;
15681;SDS011;7941;50.966;6.978;2023-04-03T03:53:00;6.70;;;6.10;;
15681;SDS011;7941;50.966;6.978;2023-04-03T03:55:26;6.03;;;5.43;;
15681;SDS011;7941;50.966;6.978;2023-04-03T03:57:52;5.60;;;5.10;;
15681;SDS011;7941;50.966;6.978;2023-04-03T04:00:18;10.13;;;5.70;;
15681;SDS011;7941;50.966;6.978;2023-04-03T04:02:45;8.07;;;5.27;;
15681;SDS011;7941;50.966;6.978;2023-04-03T04:05:11;5.60;;;5.10;;
15681;SDS011;7941;50.966;6.978;2023-04-03T04:07:37;4.97;;;4.60;;
15681;SDS011;7941;50.966;6.978;2023-04-03T04:10:04;6.40;;;5.73;;
15681;SDS011;7941;50.966;6.978;2023-04-03T04:12:30;7.37;;;5.30;;
15681;SDS011;7941;50.966;6.978;2023-04-03T04:14:56;6.30;;;5.70;;
15681;SDS011;7941;50.966;6.978;2023-04-03T04:17:22;5.53;;;5.03;;
15681;SDS011;7941;50.966;6.978;2023-04-03T04:19:48;6.03;;;5.13;;
15681;SDS011;7941;50.966;6.978;2023-04-03T04:22:15;6.33;;;5.40;;
15681;SDS011;7941;50.966;6.978;2023-04-03T04:24:41;6.43;;;4.97;;
15681;SDS011;7941;50.966;6.978;2023-04-03T04:27:07;8.30;;;5.00;;
15681;SDS011;7941;50.966;6.978;2023-04-03T04:29:33;6.63;;;5.00;;
15681;SDS011;7941;50.966;6.978;2023-04-03T04:32:02;5.63;;;4.50;;
15681;SDS011;7941;50.966;6.978;2023-04-03T04:34:28;8.00;;;4.70;;
15681;SDS011;7941;50.966;6.978;2023-04-03T04:36:55;4.67;;;4.20;;
15681;SDS011;7941;50.966;6.978;2023-04-03T04:39:21;6.27;;;4.37;;
15681;SDS011;7941;50.966;6.978;2023-04-03T04:41:47;5.87;;;4.53;;
15681;SDS011;7941;50.966;6.978;2023-04-03T04:44:13;6.33;;;4.57;;
15681;SDS011;7941;50.966;6.978;2023-04-03T04:46:39;5.17;;;4.67;;
15681;SDS011;7941;50.966;6.978;2023-04-03T04:49:06;5.10;;;4.60;;
15681;SDS011;7941;50.966;6.978;2023-04-03T04:51:32;4.63;;;4.17;;
15681;SDS011;7941;50.966;6.978;2023-04-03T04:53:58;9.03;;;4.10;;
15681;SDS011;7941;50.966;6.978;2023-04-03T04:56:24;4.80;;;4.00;;
15681;SDS011;7941;50.966;6.978;2023-04-03T04:58:51;5.10;;;4.17;;
15681;SDS011;7941;50.966;6.978;2023-04-03T05:01:17;7.33;;;4.40;;
15681;SDS011;7941;50.966;6.978;2023-04-03T05:03:43;4.87;;;3.93;;
15681;SDS011;7941;50.966;6.978;2023-04-03T05:06:09;4.97;;;4.10;;
15681;SDS011;7941;50.966;6.978;2023-04-03T05:08:36;4.47;;;3.73;;
15681;SDS011;7941;50.966;6.978;2023-04-03T05:11:02;7.33;;;4.30;;
15681;SDS011;7941;50.966;6.978;2023-04-03T05:13:28;4.70;;;4.00;;
15681;SDS011;7941;50.966;6.978;2023-04-03T05:15:55;6.70;;;4.03;;
15681;SDS011;7941;50.966;6.978;2023-04-03T05:18:21;6.93;;;4.13;;
15681;SDS011;7941;50.966;6.978;2023-04-03T05:20:48;5.47;;;3.63;;
15681;SDS011;7941;50.966;6.978;2023-04-03T05:23:15;4.73;;;4.30;;
15681;SDS011;7941;50.966;6.978;2023-04-03T05:25:41;4.90;;;4.23;;
15681;SDS011;7941;50.966;6.978;2023-04-03T05:28:10;5.67;;;3.77;;
15681;SDS011;7941;50.966;6.978;2023-04-03T05:30:37;9.23;;;4.27;;
15681;SDS011;7941;50.966;6.978;2023-04-03T05:33:03;6.73;;;4.10;;
15681;SDS011;7941;50.966;6.978;2023-04-03T05:35:29;5.63;;;4.13;;
15681;SDS011;7941;50.966;6.978;2023-04-03T05:37:55;6.43;;;4.10;;
15681;SDS011;7941;50.966;6.978;2023-04-03T05:40:21;4.73;;;4.00;;
15681;SDS011;7941;50.966;6.978;2023-04-03T05:42:47;6.17;;;4.53;;
15681;SDS011;7941;50.966;6.978;2023-04-03T05:45:13;6.53;;;3.87;;
15681;SDS011;7941;50.966;6.978;2023-04-03T05:47:40;6.00;;;4.10;;
15681;SDS011;7941;50.966;6.978;2023-04-03T05:50:06;6.10;;;4.13;;
15681;SDS011;7941;50.966;6.978;2023-04-03T05:52:35;5.70;;;3.97;;
15681;SDS011;7941;50.966;6.978;2023-04-03T05:55:02;4.57;;;4.17;;
15681;SDS011;7941;50.966;6.978;2023-04-03T05:57:28;5.33;;;4.20;;
15681;SDS011;7941;50.966;6.978;2023-04-03T05:59:54;7.83;;;4.00;;
15681;SDS011;7941;50.966;6.978;2023-04-03T06:02:21;6.53;;;4.50;;
15681;SDS011;7941;50.966;6.978;2023-04-03T06:04:48;5.37;;;4.73;;
15681;SDS011;7941;50.966;6.978;2023-04-03T06:07:15;6.97;;;4.10;;
15681;SDS011;7941;50.966;6.978;2023-04-03T06:09:42;6.53;;;4.13;;
15681;SDS011;7941;50.966;6.978;2023-04-03T06:12:08;8.13;;;6.30;;
15681;SDS011;7941;50.966;6.978;2023-04-03T06:14:35;6.23;;;5.37;;
15681;SDS011;7941;50.966;6.978;2023-04-03T06:17:02;5.77;;;3.93;;
15681;SDS011;7941;50.966;6.978;2023-04-03T06:19:28;4.80;;;4.13;;
15681;SDS011;7941;50.966;6.978;2023-04-03T06:21:55;6.17;;;3.60;;
15681;SDS011;7941;50.966;6.978;2023-04-03T06:24:21;4.53;;;3.60;;
15681;SDS011;7941;50.966;6.978;2023-04-03T06:26:49;4.50;;;3.97;;
15681;SDS011;7941;50.966;6.978;2023-04-03T06:29:16;6.70;;;4.10;;
15681;SDS011;7941;50.966;6.978;2023-04-03T06:31:42;7.20;;;4.47;;
15681;SDS011;7941;50.966;6.978;2023-04-03T06:34:09;7.33;;;5.17;;
15681;SDS011;7941;50.966;6.978;2023-04-03T06:36:36;5.80;;;4.47;;
15681;SDS011;7941;50.966;6.978;2023-04-03T06:39:03;5.53;;;4.33;;
15681;SDS011;7941;50.966;6.978;2023-04-03T06:41:30;5.03;;;4.37;;
15681;SDS011;7941;50.966;6.978;2023-04-03T06:43:56;5.27;;;4.00;;
15681;SDS011;7941;50.966;6.978;2023-04-03T06:46:23;5.97;;;4.87;;
15681;SDS011;7941;50.966;6.978;2023-04-03T06:48:50;6.40;;;4.00;;
15681;SDS011;7941;50.966;6.978;2023-04-03T06:51:20;5.50;;;3.73;;
15681;SDS011;7941;50.966;6.978;2023-04-03T06:53:47;4.33;;;3.23;;
15681;SDS011;7941;50.966;6.978;2023-04-03T06:56:14;5.73;;;3.60;;
15681;SDS011;7941;50.966;6.978;2023-04-03T06:58:40;4.00;;;3.70;;
15681;SDS011;7941;50.966;6.978;2023-04-03T07:01:07;5.33;;;3.67;;
15681;SDS011;7941;50.966;6.978;2023-04-03T07:03:34;5.77;;;3.33;;
15681;SDS011;7941;50.966;6.978;2023-04-03T07:06:02;3.67;;;3.37;;
15681;SDS011;7941;50.966;6.978;2023-04-03T07:08:28;5.83;;;3.90;;
15681;SDS011;7941;50.966;6.978;2023-04-03T07:10:54;5.00;;;2.70;;
15681;SDS011;7941;50.966;6.978;2023-04-03T07:13:21;5.43;;;3.53;;
15681;SDS011;7941;50.966;6.978;2023-04-03T07:15:47;6.17;;;4.13;;
15681;SDS011;7941;50.966;6.978;2023-04-03T07:18:15;3.50;;;3.20;;
15681;SDS011;7941;50.966;6.978;2023-04-03T07:20:42;4.83;;;3.20;;
15681;SDS011;7941;50.966;6.978;2023-04-03T07:23:08;5.43;;;3.07;;
15681;SDS011;7941;50.966;6.978;2023-04-03T07:25:35;3.70;;;2.50;;
15681;SDS011;7941;50.966;6.978;2023-04-03T07:28:03;4.57;;;2.90;;
15681;SDS011;7941;50.966;6.978;2023-04-03T07:30:29;6.60;;;2.70;;
15681;SDS011;7941;50.966;6.978;2023-04-03T07:32:55;4.13;;;3.00;;
15681;SDS011;7941;50.966;6.978;2023-04-03T07:35:21;4.37;;;2.77;;
15681;SDS011;7941;50.966;6.978;2023-04-03T07:37:47;6.47;;;2.63;;
15681;SDS011;7941;50.966;6.978;2023-04-03T07:40:14;4.20;;;2.50;;
15681;SDS011;7941;50.966;6.978;2023-04-03T07:42:40;6.90;;;3.00;;
15681;SDS011;7941;50.966;6.978;2023-04-03T07:45:07;2.33;;;2.10;;
15681;SDS011;7941;50.966;6.978;2023-04-03T07:47:33;5.27;;;2.97;;
15681;SDS011;7941;50.966;6.978;2023-04-03T07:49:59;5.10;;;3.00;;
15681;SDS011;7941;50.966;6.978;2023-04-03T07:52:25;5.60;;;2.73;;
15681;SDS011;7941;50.966;6.978;2023-04-03T07:54:51;4.53;;;2.57;;
15681;SDS011;7941;50.966;6.978;2023-04-03T07:57:17;15.27;;;9.07;;
15681;SDS011;7941;50.966;6.978;2023-04-03T07:59:44;3.20;;;2.90;;
15681;SDS011;7941;50.966;6.978;2023-04-03T08:02:10;3.50;;;2.37;;
15681;SDS011;7941;50.966;6.978;2023-04-03T08:04:37;4.27;;;2.70;;
15681;SDS011;7941;50.966;6.978;2023-04-03T08:07:04;4.10;;;2.43;;
15681;SDS011;7941;50.966;6.978;2023-04-03T08:09:30;6.73;;;2.30;;
15681;SDS011;7941;50.966;6.978;2023-04-03T08:11:57;7.90;;;2.50;;
15681;SDS011;7941;50.966;6.978;2023-04-03T08:14:23;5.10;;;2.67;;
15681;SDS011;7941;50.966;6.978;2023-04-03T08:16:50;5.00;;;2.70;;
15681;SDS011;7941;50.966;6.978;2023-04-03T08:19:16;4.50;;;2.57;;
15681;SDS011;7941;50.966;6.978;2023-04-03T08:21:43;5.83;;;2.43;;
15681;SDS011;7941;50.966;6.978;2023-04-03T08:24:10;5.37;;;2.60;;
15681;SDS011;7941;50.966;6.978;2023-04-03T08:26:37;3.43;;;2.30;;
15681;SDS011;7941;50.966;6.978;2023-04-03T08:29:03;3.93;;;2.30;;
15681;SDS011;7941;50.966;6.978;2023-04-03T08:31:29;5.07;;;3.07;;
15681;SDS011;7941;50.966;6.978;2023-04-03T08:33:56;2.83;;;2.23;;
15681;SDS011;7941;50.966;6.978;2023-04-03T08:36:24;5.17;;;2.50;;
15681;SDS011;7941;50.966;6.978;2023-04-03T08:38:51;4.60;;;2.53;;
15681;SDS011;7941;50.966;6.978;2023-04-03T08:46:47;6.13;;;2.70;;
15681;SDS011;7941;50.966;6.978;2023-04-03T08:49:21;4.83;;;2.47;;
15681;SDS011;7941;50.966;6.978;2023-04-03T08:51:49;2.97;;;2.23;;
15681;SDS011;7941;50.966;6.978;2023-04-03T08:54:40;5.10;;;3.87;;
15681;SDS011;7941;50.966;6.978;2023-04-03T08:57:04;6.33;;;2.93;;
15681;SDS011;7941;50.966;6.978;2023-04-03T08:59:35;5.13;;;3.20;;
15681;SDS011;7941;50.966;6.978;2023-04-03T09:02:12;4.80;;;2.53;;
15681;SDS011;7941;50.966;6.978;2023-04-03T09:04:42;4.10;;;1.90;;
15681;SDS011;7941;50.966;6.978;2023-04-03T09:07:09;4.67;;;2.23;;
15681;SDS011;7941;50.966;6.978;2023-04-03T09:09:42;3.70;;;2.10;;
15681;SDS011;7941;50.966;6.978;2023-04-03T09:12:23;5.03;;;2.77;;
15681;SDS011;7941;50.966;6.978;2023-04-03T09:17:41;3.10;;;2.00;;
15681;SDS011;7941;50.966;6.978;2023-04-03T09:22:52;2.90;;;2.10;;
15681;SDS011;7941;50.966;6.978;2023-04-03T09:27:49;4.50;;;2.10;;
15681;SDS011;7941;50.966;6.978;2023-04-03T09:30:17;1.93;;;1.73;;
15681;SDS011;7941;50.966;6.978;2023-04-03T09:32:47;3.67;;;2.03;;
15681;SDS011;7941;50.966;6.978;2023-04-03T09:37:40;3.40;;;1.83;;
15681;SDS011;7941;50.966;6.978;2023-04-03T09:42:56;3.60;;;1.60;;
15681;SDS011;7941;50.966;6.978;2023-04-03T09:45:27;3.17;;;1.63;;
15681;SDS011;7941;50.966;6.978;2023-04-03T09:48:36;1.87;;;1.70;;
15681;SDS011;7941;50.966;6.978;2023-04-03T09:56:04;3.67;;;2.00;;
15681;SDS011;7941;50.966;6.978;2023-04-03T09:58:38;3.33;;;1.83;;
15681;SDS011;7941;50.966;6.978;2023-04-03T10:01:31;1.30;;;1.10;;
15681;SDS011;7941;50.966;6.978;2023-04-03T10:04:06;1.73;;;1.60;;
15681;SDS011;7941;50.966;6.978;2023-04-03T10:06:34;1.50;;;1.23;;
15681;SDS011;7941;50.966;6.978;2023-04-03T10:09:06;3.37;;;1.40;;
15681;SDS011;7941;50.966;6.978;2023-04-03T10:11:50;1.97;;;1.40;;
15681;SDS011;7941;50.966;6.978;2023-04-03T10:14:22;2.10;;;1.37;;
15681;SDS011;7941;50.966;6.978;2023-04-03T10:16:52;2.23;;;1.43;;
15681;SDS011;7941;50.966;6.978;2023-04-03T10:22:18;2.37;;;1.30;;
15681;SDS011;7941;50.966;6.978;2023-04-03T10:24:54;1.13;;;1.03;;
15681;SDS011;7941;50.966;6.978;2023-04-03T10:40:33;2.73;;;1.50;;
15681;SDS011;7941;50.966;6.978;2023-04-03T10:43:07;1.50;;;1.40;;
15681;SDS011;7941;50.966;6.978;2023-04-03T10:48:04;1.67;;;1.00;;
15681;SDS011;7941;50.966;6.978;2023-04-03T10:53:19;2.17;;;1.13;;
15681;SDS011;7941;50.966;6.978;2023-04-03T10:58:27;1.10;;;1.00;;
15681;SDS011;7941;50.966;6.978;2023-04-03T11:00:55;2.70;;;1.10;;
15681;SDS011;7941;50.966;6.978;2023-04-03T11:05:52;2.20;;;1.10;;
15681;SDS011;7941;50.966;6.978;2023-04-03T11:10:59;1.53;;;1.20;;
15681;SDS011;7941;50.966;6.978;2023-04-03T11:13:37;6.43;;;3.17;;
15681;SDS011;7941;50.966;6.978;2023-04-03T11:16:05;2.00;;;1.40;;
15681;SDS011;7941;50.966;6.978;2023-04-03T11:18:42;2.67;;;1.00;;
15681;SDS011;7941;50.966;6.978;2023-04-03T11:23:39;1.33;;;1.10;;
15681;SDS011;7941;50.966;6.978;2023-04-03T11:26:13;1.90;;;1.07;;
15681;SDS011;7941;50.966;6.978;2023-04-03T11:28:39;1.73;;;0.83;;
15681;SDS011;7941;50.966;6.978;2023-04-03T11:33:55;2.33;;;1.10;;
15681;SDS011;7941;50.966;6.978;2023-04-03T11:36:25;2.27;;;1.37;;
15681;SDS011;7941;50.966;6.978;2023-04-03T11:38:53;2.50;;;1.30;;
15681;SDS011;7941;50.966;6.978;2023-04-03T11:41:27;1.63;;;1.00;;
15681;SDS011;7941;50.966;6.978;2023-04-03T11:43:58;3.33;;;1.10;;
15681;SDS011;7941;50.966;6.978;2023-04-03T11:51:54;2.30;;;1.23;;
15681;SDS011;7941;50.966;6.978;2023-04-03T11:54:35;3.67;;;1.60;;
15681;SDS011;7941;50.966;6.978;2023-04-03T11:57:22;2.47;;;1.30;;
15681;SDS011;7941;50.966;6.978;2023-04-03T11:59:48;2.30;;;1.30;;
15681;SDS011;7941;50.966;6.978;2023-04-03T12:10:38;1.63;;;1.20;;
15681;SDS011;7941;50.966;6.978;2023-04-03T12:13:13;1.43;;;0.90;;
15681;SDS011;7941;50.966;6.978;2023-04-03T12:15:50;2.47;;;1.40;;
15681;SDS011;7941;50.966;6.978;2023-04-03T12:21:01;4.50;;;3.90;;
15681;SDS011;7941;50.966;6.978;2023-04-03T12:23:55;2.97;;;1.30;;
15681;SDS011;7941;50.966;6.978;2023-04-03T12:28:44;2.70;;;1.10;;
15681;SDS011;7941;50.966;6.978;2023-04-03T12:31:11;1.43;;;1.33;;
15681;SDS011;7941;50.966;6.978;2023-04-03T12:36:12;1.60;;;1.20;;
15681;SDS011;7941;50.966;6.978;2023-04-03T12:41:37;2.30;;;1.70;;
15681;SDS011;7941;50.966;6.978;2023-04-03T12:44:12;3.30;;;1.60;;
15681;SDS011;7941;50.966;6.978;2023-04-03T12:46:50;2.30;;;1.30;;
15681;SDS011;7941;50.966;6.978;2023-04-03T12:51:49;2.80;;;1.10;;
15681;SDS011;7941;50.966;6.978;2023-04-03T12:54:18;1.70;;;1.07;;
15681;SDS011;7941;50.966;6.978;2023-04-03T12:56:45;2.23;;;0.90;;
15681;SDS011;7941;50.966;6.978;2023-04-03T13:01:57;2.77;;;0.83;;
15681;SDS011;7941;50.966;6.978;2023-04-03T13:04:23;1.80;;;0.87;;
15681;SDS011;7941;50.966;6.978;2023-04-03T13:06:50;2.13;;;1.17;;
15681;SDS011;7941;50.966;6.978;2023-04-03T13:11:49;1.63;;;1.00;;
15681;SDS011;7941;50.966;6.978;2023-04-03T13:14:23;3.83;;;3.23;;
15681;SDS011;7941;50.966;6.978;2023-04-03T13:16:54;4.17;;;1.80;;
15681;SDS011;7941;50.966;6.978;2023-04-03T13:19:22;1.20;;;1.10;;
15681;SDS011;7941;50.966;6.978;2023-04-03T13:21:49;1.67;;;1.13;;
15681;SDS011;7941;50.966;6.978;2023-04-03T13:24:17;1.87;;;1.53;;
15681;SDS011;7941;50.966;6.978;2023-04-03T13:26:43;2.00;;;1.20;;
15681;SDS011;7941;50.966;6.978;2023-04-03T13:29:23;1.47;;;1.27;;
15681;SDS011;7941;50.966;6.978;2023-04-03T13:31:52;5.17;;;3.57;;
15681;SDS011;7941;50.966;6.978;2023-04-03T13:34:19;2.07;;;1.60;;
15681;SDS011;7941;50.966;6.978;2023-04-03T13:41:43;1.90;;;1.47;;
15681;SDS011;7941;50.966;6.978;2023-04-03T13:46:42;2.17;;;1.10;;
15681;SDS011;7941;50.966;6.978;2023-04-03T13:49:19;1.50;;;1.00;;
15681;SDS011;7941;50.966;6.978;2023-04-03T13:51:45;2.17;;;1.40;;
15681;SDS011;7941;50.966;6.978;2023-04-03T13:54:22;2.33;;;1.07;;
15681;SDS011;7941;50.966;6.978;2023-04-03T13:56:55;2.40;;;1.33;;
15681;SDS011;7941;50.966;6.978;2023-04-03T13:59:24;1.80;;;1.33;;
15681;SDS011;7941;50.966;6.978;2023-04-03T14:04:18;3.67;;;1.37;;
15681;SDS011;7941;50.966;6.978;2023-04-03T14:06:45;2.93;;;1.47;;
15681;SDS011;7941;50.966;6.978;2023-04-03T14:09:11;2.87;;;1.97;;
15681;SDS011;7941;50.966;6.978;2023-04-03T14:11:39;2.23;;;1.10;;
15681;SDS011;7941;50.966;6.978;2023-04-03T14:14:09;1.73;;;1.17;;
15681;SDS011;7941;50.966;6.978;2023-04-03T14:16:38;1.67;;;1.30;;
15681;SDS011;7941;50.966;6.978;2023-04-03T14:19:05;6.83;;;5.67;;
15681;SDS011;7941;50.966;6.978;2023-04-03T14:21:33;1.33;;;1.23;;
15681;SDS011;7941;50.966;6.978;2023-04-03T14:24:00;3.97;;;1.27;;
15681;SDS011;7941;50.966;6.978;2023-04-03T14:26:27;2.43;;;1.10;;
15681;SDS011;7941;50.966;6.978;2023-04-03T14:28:55;2.07;;;1.30;;
15681;SDS011;7941;50.966;6.978;2023-04-03T14:31:22;1.80;;;1.33;;
15681;SDS011;7941;50.966;6.978;2023-04-03T14:33:48;1.33;;;1.23;;
15681;SDS011;7941;50.966;6.978;2023-04-03T14:36:17;2.20;;;1.53;;
15681;SDS011;7941;50.966;6.978;2023-04-03T14:38:44;2.60;;;1.00;;
15681;SDS011;7941;50.966;6.978;2023-04-03T14:41:14;3.43;;;2.83;;
15681;SDS011;7941;50.966;6.978;2023-04-03T14:43:41;1.93;;;1.37;;
15681;SDS011;7941;50.966;6.978;2023-04-03T14:46:12;1.30;;;1.20;;
15681;SDS011;7941;50.966;6.978;2023-04-03T14:48:39;1.57;;;1.17;;
15681;SDS011;7941;50.966;6.978;2023-04-03T14:51:08;2.10;;;1.07;;
15681;SDS011;7941;50.966;6.978;2023-04-03T14:53:35;1.20;;;1.00;;
15681;SDS011;7941;50.966;6.978;2023-04-03T14:56:02;1.70;;;1.20;;
15681;SDS011;7941;50.966;6.978;2023-04-03T14:58:28;2.23;;;1.73;;
15681;SDS011;7941;50.966;6.978;2023-04-03T15:00:54;12.23;;;6.80;;
15681;SDS011;7941;50.966;6.978;2023-04-03T15:03:20;2.30;;;1.43;;
15681;SDS011;7941;50.966;6.978;2023-04-03T15:05:48;2.40;;;1.20;;
15681;SDS011;7941;50.966;6.978;2023-04-03T15:08:17;2.83;;;1.30;;
15681;SDS011;7941;50.966;6.978;2023-04-03T15:10:44;3.37;;;1.10;;
15681;SDS011;7941;50.966;6.978;2023-04-03T15:13:11;1.73;;;1.10;;
15681;SDS011;7941;50.966;6.978;2023-04-03T15:15:38;2.73;;;1.43;;
15681;SDS011;7941;50.966;6.978;2023-04-03T15:18:04;2.30;;;1.10;;
15681;SDS011;7941;50.966;6.978;2023-04-03T15:20:31;4.23;;;1.50;;
15681;SDS011;7941;50.966;6.978;2023-04-03T15:22:59;3.07;;;1.67;;
15681;SDS011;7941;50.966;6.978;2023-04-03T15:25:29;3.33;;;1.40;;
15681;SDS011;7941;50.966;6.978;2023-04-03T15:27:56;2.20;;;1.50;;
15681;SDS011;7941;50.966;6.978;2023-04-03T15:30:38;2.70;;;2.43;;
15681;SDS011;7941;50.966;6.978;2023-04-03T15:33:05;2.67;;;1.63;;
15681;SDS011;7941;50.966;6.978;2023-04-03T15:35:32;1.63;;;1.40;;
15681;SDS011;7941;50.966;6.978;2023-04-03T15:37:58;2.13;;;1.37;;
15681;SDS011;7941;50.966;6.978;2023-04-03T15:40:24;2.63;;;1.60;;
15681;SDS011;7941;50.966;6.978;2023-04-03T15:42:51;1.47;;;1.30;;
15681;SDS011;7941;50.966;6.978;2023-04-03T15:45:17;2.77;;;1.20;;
15681;SDS011;7941;50.966;6.978;2023-04-03T15:47:43;2.07;;;1.60;;
15681;SDS011;7941;50.966;6.978;2023-04-03T15:50:10;2.73;;;1.53;;
15681;SDS011;7941;50.966;6.978;2023-04-03T15:52:36;2.50;;;1.73;;
15681;SDS011;7941;50.966;6.978;2023-04-03T15:55:03;1.93;;;1.63;;
15681;SDS011;7941;50.966;6.978;2023-04-03T15:57:29;2.53;;;1.50;;
15681;SDS011;7941;50.966;6.978;2023-04-03T15:59:56;3.57;;;1.47;;
15681;SDS011;7941;50.966;6.978;2023-04-03T16:02:22;5.63;;;3.17;;
15681;SDS011;7941;50.966;6.978;2023-04-03T16:04:52;7.03;;;4.10;;
15681;SDS011;7941;50.966;6.978;2023-04-03T16:07:19;4.27;;;1.80;;
15681;SDS011;7941;50.966;6.978;2023-04-03T16:09:45;2.37;;;1.40;;
15681;SDS011;7941;50.966;6.978;2023-04-03T16:12:12;3.03;;;2.13;;
15681;SDS011;7941;50.966;6.978;2023-04-03T16:14:38;2.87;;;1.33;;
15681;SDS011;7941;50.966;6.978;2023-04-03T16:17:04;3.47;;;1.40;;
15681;SDS011;7941;50.966;6.978;2023-04-03T16:19:31;2.27;;;1.40;;
15681;SDS011;7941;50.966;6.978;2023-04-03T16:21:57;2.63;;;1.60;;
15681;SDS011;7941;50.966;6.978;2023-04-03T16:24:23;3.87;;;1.60;;
15681;SDS011;7941;50.966;6.978;2023-04-03T16:26:49;2.97;;;1.67;;
15681;SDS011;7941;50.966;6.978;2023-04-03T16:29:15;4.10;;;3.50;;
15681;SDS011;7941;50.966;6.978;2023-04-03T16:31:42;3.03;;;1.40;;
15681;SDS011;7941;50.966;6.978;2023-04-03T16:34:08;4.60;;;1.70;;
15681;SDS011;7941;50.966;6.978;2023-04-03T16:36:34;4.47;;;2.67;;
15681;SDS011;7941;50.966;6.978;2023-04-03T16:39:03;3.00;;;1.73;;
15681;SDS011;7941;50.966;6.978;2023-04-03T16:41:29;2.73;;;1.37;;
15681;SDS011;7941;50.966;6.978;2023-04-03T16:43:55;1.87;;;1.30;;
15681;SDS011;7941;50.966;6.978;2023-04-03T16:46:21;4.17;;;1.47;;
15681;SDS011;7941;50.966;6.978;2023-04-03T16:48:47;3.17;;;1.47;;